Strona główna
METAR-TAF:

METAR-TAF

Lotnisko :

Panama, Panama

Port lotniczy Albrook "Marcos A. Gelabert"

Szerokość geograficzna: 08-59N, Długość geograficzna: 079-31W, wysokość: 13 m

Aktualna obserwacja pogody

Raport powstał 54 minut temu, godzina 19:00 UTC
Wiatr 15 kt od północ, zmienny między północny zachód i północno-północny wschód
Temperatura 31°C
Wilgotność 55%
Ciśnienie 1010 hPa
Widzialność 10 km lub więcej
Mało chmury na wysokości 2000 ft

METAR: MPMG 181900Z 35015KT 320V030 9999 FEW020 31/21 Q1010 NOSIG

czas: 14:54 (19:54 UTC)

Prognoza

Raport powstał 3 godziny i 54 minut temu, godzina 16:00 UTC
Prognoza ważna od 18 godzina 18 UTC do 19 godzina 06 UTC
Wiatr 14 kt od północno-północny zachód
Widzialność 10 km lub więcej
Rozproszone chmury na wysokości 2000 ft
Stopniowe zmiany
od 19 godzina 02 UTC do 19 godzina 06 UTC
Wiatr kt od północ

TAF: MPMG 181600Z 1818/1906 34014KT 9999 SCT020 BECMG 1902/1906 00000KT

Obserwacja i prognoza pogody dla ponad 4000 lotnisk (raport METAR i TAF).

Dostępne stacje oznaczono żółtymi i czerwonymi punktami na mapie.

Najedź kursorem aby zobaczyć nazwę stacji.

Kliknij aby zobaczyć obserwacje i prognozy pogody.

Aby zmienić mapę: kliknij na zielony przycisk z czarnym krzyżykiem, aby powiększyć; na zielony przycisk z myślnikiem, aby pomniejszyć; na zielone strzałki, aby przejść do map sąsiednich.


METAR-TAF: